sensor_id;sensor_type;location;lat;lon;timestamp;P1;durP1;ratioP1;P2;durP2;ratioP2
39314;SDS011;28703;44.412;11.918;2023-06-05T00:00:46;15.15;;;11.18;;
39314;SDS011;28703;44.412;11.918;2023-06-05T00:08:41;17.73;;;11.90;;
39314;SDS011;28703;44.412;11.918;2023-06-05T00:14:10;14.30;;;10.07;;
39314;SDS011;28703;44.412;11.918;2023-06-05T00:16:36;17.45;;;10.57;;
39314;SDS011;28703;44.412;11.918;2023-06-05T00:19:20;17.67;;;11.20;;
39314;SDS011;28703;44.412;11.918;2023-06-05T00:21:46;19.08;;;12.52;;
39314;SDS011;28703;44.412;11.918;2023-06-05T00:24:12;28.23;;;16.20;;
39314;SDS011;28703;44.412;11.918;2023-06-05T00:26:38;15.20;;;12.60;;
39314;SDS011;28703;44.412;11.918;2023-06-05T00:29:22;18.15;;;13.40;;
39314;SDS011;28703;44.412;11.918;2023-06-05T00:31:48;22.77;;;13.93;;
39314;SDS011;28703;44.412;11.918;2023-06-05T00:34:32;19.73;;;14.50;;
39314;SDS011;28703;44.412;11.918;2023-06-05T00:36:58;22.58;;;13.43;;
39314;SDS011;28703;44.412;11.918;2023-06-05T00:39:24;20.25;;;13.35;;
39314;SDS011;28703;44.412;11.918;2023-06-05T00:41:50;19.95;;;14.30;;
39314;SDS011;28703;44.412;11.918;2023-06-05T00:44:17;16.63;;;13.45;;
39314;SDS011;28703;44.412;11.918;2023-06-05T00:46:43;19.90;;;14.57;;
39314;SDS011;28703;44.412;11.918;2023-06-05T00:49:47;20.83;;;14.43;;
39314;SDS011;28703;44.412;11.918;2023-06-05T00:52:13;22.33;;;15.68;;
39314;SDS011;28703;44.412;11.918;2023-06-05T00:54:40;19.30;;;14.27;;
39314;SDS011;28703;44.412;11.918;2023-06-05T00:57:06;22.05;;;14.38;;
39314;SDS011;28703;44.412;11.918;2023-06-05T00:59:36;20.75;;;12.48;;
39314;SDS011;28703;44.412;11.918;2023-06-05T01:02:02;28.70;;;15.35;;
39314;SDS011;28703;44.412;11.918;2023-06-05T01:04:47;24.92;;;14.63;;
39314;SDS011;28703;44.412;11.918;2023-06-05T01:07:13;23.38;;;14.88;;
39314;SDS011;28703;44.412;11.918;2023-06-05T01:09:41;24.50;;;13.80;;
39314;SDS011;28703;44.412;11.918;2023-06-05T01:15:03;16.63;;;12.02;;
39314;SDS011;28703;44.412;11.918;2023-06-05T01:17:33;14.63;;;12.70;;
39314;SDS011;28703;44.412;11.918;2023-06-05T01:19:59;15.20;;;13.45;;
39314;SDS011;28703;44.412;11.918;2023-06-05T01:22:33;23.45;;;13.70;;
39314;SDS011;28703;44.412;11.918;2023-06-05T01:25:17;19.48;;;15.00;;
39314;SDS011;28703;44.412;11.918;2023-06-05T01:28:16;20.88;;;17.42;;
39314;SDS011;28703;44.412;11.918;2023-06-05T01:31:08;20.23;;;16.90;;
39314;SDS011;28703;44.412;11.918;2023-06-05T01:36:46;22.88;;;18.50;;
39314;SDS011;28703;44.412;11.918;2023-06-05T01:39:32;28.45;;;18.33;;
39314;SDS011;28703;44.412;11.918;2023-06-05T01:41:58;29.38;;;19.50;;
39314;SDS011;28703;44.412;11.918;2023-06-05T01:44:25;25.45;;;19.15;;
39314;SDS011;28703;44.412;11.918;2023-06-05T01:46:51;25.42;;;20.63;;
39314;SDS011;28703;44.412;11.918;2023-06-05T01:49:18;21.00;;;18.73;;
39314;SDS011;28703;44.412;11.918;2023-06-05T01:51:45;25.73;;;19.85;;
39314;SDS011;28703;44.412;11.918;2023-06-05T01:54:11;25.35;;;17.50;;
39314;SDS011;28703;44.412;11.918;2023-06-05T01:56:37;19.70;;;17.80;;
39314;SDS011;28703;44.412;11.918;2023-06-05T01:59:05;19.67;;;17.40;;
39314;SDS011;28703;44.412;11.918;2023-06-05T02:01:31;25.42;;;18.65;;
39314;SDS011;28703;44.412;11.918;2023-06-05T02:03:58;27.65;;;21.30;;
39314;SDS011;28703;44.412;11.918;2023-06-05T02:06:23;24.48;;;20.80;;
39314;SDS011;28703;44.412;11.918;2023-06-05T02:08:50;28.02;;;24.83;;
39314;SDS011;28703;44.412;11.918;2023-06-05T02:11:16;28.40;;;23.85;;
39314;SDS011;28703;44.412;11.918;2023-06-05T02:13:42;26.52;;;23.50;;
39314;SDS011;28703;44.412;11.918;2023-06-05T02:16:10;27.77;;;24.77;;
39314;SDS011;28703;44.412;11.918;2023-06-05T02:18:37;31.77;;;24.90;;
39314;SDS011;28703;44.412;11.918;2023-06-05T02:21:03;28.70;;;24.92;;
39314;SDS011;28703;44.412;11.918;2023-06-05T02:23:29;34.53;;;25.08;;
39314;SDS011;28703;44.412;11.918;2023-06-05T02:25:56;26.35;;;23.58;;
39314;SDS011;28703;44.412;11.918;2023-06-05T02:28:21;31.45;;;27.05;;
39314;SDS011;28703;44.412;11.918;2023-06-05T02:30:47;31.55;;;26.58;;
39314;SDS011;28703;44.412;11.918;2023-06-05T02:33:13;34.03;;;27.67;;
39314;SDS011;28703;44.412;11.918;2023-06-05T02:35:40;35.05;;;27.23;;
39314;SDS011;28703;44.412;11.918;2023-06-05T02:38:09;29.52;;;25.92;;
39314;SDS011;28703;44.412;11.918;2023-06-05T02:40:38;33.20;;;26.65;;
39314;SDS011;28703;44.412;11.918;2023-06-05T02:43:04;35.47;;;29.25;;
39314;SDS011;28703;44.412;11.918;2023-06-05T02:45:34;39.38;;;29.80;;
39314;SDS011;28703;44.412;11.918;2023-06-05T02:48:00;33.85;;;27.80;;
39314;SDS011;28703;44.412;11.918;2023-06-05T02:50:27;36.40;;;28.73;;
39314;SDS011;28703;44.412;11.918;2023-06-05T02:52:56;31.00;;;27.77;;
39314;SDS011;28703;44.412;11.918;2023-06-05T02:55:28;30.27;;;27.08;;
39314;SDS011;28703;44.412;11.918;2023-06-05T02:57:57;30.42;;;25.33;;
39314;SDS011;28703;44.412;11.918;2023-06-05T03:00:31;28.35;;;24.45;;
39314;SDS011;28703;44.412;11.918;2023-06-05T03:02:57;33.28;;;23.90;;
39314;SDS011;28703;44.412;11.918;2023-06-05T03:05:29;28.50;;;22.35;;
39314;SDS011;28703;44.412;11.918;2023-06-05T03:07:59;34.40;;;21.92;;
39314;SDS011;28703;44.412;11.918;2023-06-05T03:10:26;24.85;;;20.90;;
39314;SDS011;28703;44.412;11.918;2023-06-05T03:12:53;26.88;;;21.38;;
39314;SDS011;28703;44.412;11.918;2023-06-05T03:15:21;27.70;;;20.27;;
39314;SDS011;28703;44.412;11.918;2023-06-05T03:17:50;29.75;;;21.85;;
39314;SDS011;28703;44.412;11.918;2023-06-05T03:20:19;31.52;;;21.90;;
39314;SDS011;28703;44.412;11.918;2023-06-05T03:22:46;29.80;;;22.20;;
39314;SDS011;28703;44.412;11.918;2023-06-05T03:25:11;30.13;;;21.70;;
39314;SDS011;28703;44.412;11.918;2023-06-05T03:27:40;32.53;;;23.30;;
39314;SDS011;28703;44.412;11.918;2023-06-05T03:30:07;25.35;;;21.88;;
39314;SDS011;28703;44.412;11.918;2023-06-05T03:32:39;32.35;;;21.55;;
39314;SDS011;28703;44.412;11.918;2023-06-05T03:35:06;28.58;;;20.55;;
39314;SDS011;28703;44.412;11.918;2023-06-05T03:37:34;32.25;;;21.73;;
39314;SDS011;28703;44.412;11.918;2023-06-05T03:40:00;30.67;;;20.48;;
39314;SDS011;28703;44.412;11.918;2023-06-05T03:42:26;30.33;;;21.88;;
39314;SDS011;28703;44.412;11.918;2023-06-05T03:44:52;30.27;;;21.90;;
39314;SDS011;28703;44.412;11.918;2023-06-05T03:47:18;27.45;;;21.23;;
39314;SDS011;28703;44.412;11.918;2023-06-05T03:49:46;32.63;;;20.00;;
39314;SDS011;28703;44.412;11.918;2023-06-05T03:52:13;27.35;;;20.13;;
39314;SDS011;28703;44.412;11.918;2023-06-05T03:54:40;28.05;;;19.38;;
39314;SDS011;28703;44.412;11.918;2023-06-05T03:57:06;26.40;;;16.80;;
39314;SDS011;28703;44.412;11.918;2023-06-05T03:59:38;26.10;;;18.98;;
39314;SDS011;28703;44.412;11.918;2023-06-05T04:02:04;28.58;;;18.98;;
39314;SDS011;28703;44.412;11.918;2023-06-05T04:04:31;26.73;;;17.85;;
39314;SDS011;28703;44.412;11.918;2023-06-05T04:06:57;33.33;;;15.98;;
39314;SDS011;28703;44.412;11.918;2023-06-05T04:09:25;21.35;;;17.15;;
39314;SDS011;28703;44.412;11.918;2023-06-05T04:11:51;31.50;;;16.10;;
39314;SDS011;28703;44.412;11.918;2023-06-05T04:14:18;28.67;;;16.85;;
39314;SDS011;28703;44.412;11.918;2023-06-05T04:16:44;25.52;;;15.88;;
39314;SDS011;28703;44.412;11.918;2023-06-05T04:19:15;24.48;;;15.13;;
39314;SDS011;28703;44.412;11.918;2023-06-05T04:21:43;29.45;;;16.45;;
39314;SDS011;28703;44.412;11.918;2023-06-05T04:24:11;31.50;;;15.93;;
39314;SDS011;28703;44.412;11.918;2023-06-05T04:26:37;22.17;;;14.20;;
39314;SDS011;28703;44.412;11.918;2023-06-05T04:29:04;27.08;;;14.48;;
39314;SDS011;28703;44.412;11.918;2023-06-05T04:31:41;21.08;;;14.98;;
39314;SDS011;28703;44.412;11.918;2023-06-05T04:34:08;27.63;;;13.00;;
39314;SDS011;28703;44.412;11.918;2023-06-05T04:36:34;16.20;;;13.15;;
39314;SDS011;28703;44.412;11.918;2023-06-05T04:39:01;21.77;;;13.27;;
39314;SDS011;28703;44.412;11.918;2023-06-05T04:41:30;40.92;;;14.13;;
39314;SDS011;28703;44.412;11.918;2023-06-05T04:43:58;24.80;;;13.50;;
39314;SDS011;28703;44.412;11.918;2023-06-05T04:46:29;24.33;;;15.50;;
39314;SDS011;28703;44.412;11.918;2023-06-05T04:48:55;26.05;;;15.68;;
39314;SDS011;28703;44.412;11.918;2023-06-05T04:51:23;29.70;;;15.13;;
39314;SDS011;28703;44.412;11.918;2023-06-05T04:53:50;20.38;;;14.50;;
39314;SDS011;28703;44.412;11.918;2023-06-05T04:56:19;29.95;;;15.00;;
39314;SDS011;28703;44.412;11.918;2023-06-05T04:58:49;28.80;;;15.30;;
39314;SDS011;28703;44.412;11.918;2023-06-05T05:01:17;23.13;;;14.50;;
39314;SDS011;28703;44.412;11.918;2023-06-05T05:03:43;21.10;;;15.50;;
39314;SDS011;28703;44.412;11.918;2023-06-05T05:06:13;20.67;;;15.35;;
39314;SDS011;28703;44.412;11.918;2023-06-05T05:08:42;23.00;;;16.13;;
39314;SDS011;28703;44.412;11.918;2023-06-05T05:13:40;18.23;;;14.18;;
39314;SDS011;28703;44.412;11.918;2023-06-05T05:16:06;21.10;;;14.25;;
39314;SDS011;28703;44.412;11.918;2023-06-05T05:18:33;20.08;;;13.93;;
39314;SDS011;28703;44.412;11.918;2023-06-05T05:21:00;16.35;;;14.07;;
39314;SDS011;28703;44.412;11.918;2023-06-05T05:23:27;19.33;;;13.82;;
39314;SDS011;28703;44.412;11.918;2023-06-05T05:25:53;16.17;;;13.20;;
39314;SDS011;28703;44.412;11.918;2023-06-05T05:28:20;15.32;;;12.95;;
39314;SDS011;28703;44.412;11.918;2023-06-05T05:30:47;17.98;;;13.45;;
39314;SDS011;28703;44.412;11.918;2023-06-05T05:33:13;16.08;;;10.10;;
39314;SDS011;28703;44.412;11.918;2023-06-05T05:35:40;11.00;;;8.35;;
39314;SDS011;28703;44.412;11.918;2023-06-05T05:38:06;11.95;;;8.82;;
39314;SDS011;28703;44.412;11.918;2023-06-05T05:40:32;12.07;;;8.45;;
39314;SDS011;28703;44.412;11.918;2023-06-05T05:42:58;10.93;;;6.45;;
39314;SDS011;28703;44.412;11.918;2023-06-05T05:45:23;10.30;;;6.65;;
39314;SDS011;28703;44.412;11.918;2023-06-05T05:47:49;11.68;;;7.00;;
39314;SDS011;28703;44.412;11.918;2023-06-05T05:50:15;11.90;;;5.70;;
39314;SDS011;28703;44.412;11.918;2023-06-05T05:52:41;11.63;;;6.05;;
39314;SDS011;28703;44.412;11.918;2023-06-05T05:55:08;8.77;;;6.25;;
39314;SDS011;28703;44.412;11.918;2023-06-05T05:57:34;6.90;;;6.25;;
39314;SDS011;28703;44.412;11.918;2023-06-05T06:00:00;12.90;;;6.82;;
39314;SDS011;28703;44.412;11.918;2023-06-05T06:02:36;11.65;;;7.40;;
39314;SDS011;28703;44.412;11.918;2023-06-05T06:05:02;10.43;;;7.85;;
39314;SDS011;28703;44.412;11.918;2023-06-05T06:07:28;9.73;;;8.45;;
39314;SDS011;28703;44.412;11.918;2023-06-05T06:09:54;11.15;;;8.32;;
39314;SDS011;28703;44.412;11.918;2023-06-05T06:12:20;18.98;;;9.65;;
39314;SDS011;28703;44.412;11.918;2023-06-05T06:14:46;15.05;;;8.45;;
39314;SDS011;28703;44.412;11.918;2023-06-05T06:17:13;11.65;;;7.60;;
39314;SDS011;28703;44.412;11.918;2023-06-05T06:19:39;14.38;;;7.72;;
39314;SDS011;28703;44.412;11.918;2023-06-05T06:22:06;8.95;;;8.07;;
39314;SDS011;28703;44.412;11.918;2023-06-05T06:24:38;9.55;;;8.57;;
39314;SDS011;28703;44.412;11.918;2023-06-05T06:27:04;10.63;;;7.80;;
39314;SDS011;28703;44.412;11.918;2023-06-05T06:29:31;9.55;;;8.55;;
39314;SDS011;28703;44.412;11.918;2023-06-05T06:31:57;10.48;;;8.13;;
39314;SDS011;28703;44.412;11.918;2023-06-05T06:34:23;8.82;;;8.00;;
39314;SDS011;28703;44.412;11.918;2023-06-05T06:36:50;11.20;;;9.02;;
39314;SDS011;28703;44.412;11.918;2023-06-05T06:39:16;9.27;;;8.35;;
39314;SDS011;28703;44.412;11.918;2023-06-05T06:41:44;9.55;;;8.35;;
39314;SDS011;28703;44.412;11.918;2023-06-05T06:44:10;14.85;;;8.25;;
39314;SDS011;28703;44.412;11.918;2023-06-05T06:46:36;11.18;;;9.00;;
39314;SDS011;28703;44.412;11.918;2023-06-05T06:49:02;10.80;;;8.57;;
39314;SDS011;28703;44.412;11.918;2023-06-05T06:51:28;12.95;;;8.60;;
39314;SDS011;28703;44.412;11.918;2023-06-05T06:53:54;8.85;;;7.25;;
39314;SDS011;28703;44.412;11.918;2023-06-05T06:56:20;9.45;;;7.65;;
39314;SDS011;28703;44.412;11.918;2023-06-05T06:58:46;8.55;;;6.65;;
39314;SDS011;28703;44.412;11.918;2023-06-05T07:01:14;11.00;;;6.78;;
39314;SDS011;28703;44.412;11.918;2023-06-05T07:03:40;7.78;;;6.65;;
39314;SDS011;28703;44.412;11.918;2023-06-05T07:06:08;9.60;;;6.93;;
39314;SDS011;28703;44.412;11.918;2023-06-05T07:08:35;7.93;;;7.00;;
39314;SDS011;28703;44.412;11.918;2023-06-05T07:11:01;11.70;;;8.18;;
39314;SDS011;28703;44.412;11.918;2023-06-05T07:13:27;8.60;;;7.72;;
39314;SDS011;28703;44.412;11.918;2023-06-05T07:15:52;14.90;;;7.97;;
39314;SDS011;28703;44.412;11.918;2023-06-05T07:18:18;11.45;;;7.63;;
39314;SDS011;28703;44.412;11.918;2023-06-05T07:20:47;9.73;;;8.75;;
39314;SDS011;28703;44.412;11.918;2023-06-05T07:23:14;12.10;;;8.75;;
39314;SDS011;28703;44.412;11.918;2023-06-05T07:25:40;10.52;;;8.48;;
39314;SDS011;28703;44.412;11.918;2023-06-05T07:28:09;8.75;;;7.88;;
39314;SDS011;28703;44.412;11.918;2023-06-05T07:30:39;16.88;;;12.60;;
39314;SDS011;28703;44.412;11.918;2023-06-05T07:33:08;11.27;;;9.85;;
39314;SDS011;28703;44.412;11.918;2023-06-05T07:35:34;10.40;;;9.50;;
39314;SDS011;28703;44.412;11.918;2023-06-05T07:38:01;8.75;;;7.95;;
39314;SDS011;28703;44.412;11.918;2023-06-05T07:40:27;15.13;;;11.70;;
39314;SDS011;28703;44.412;11.918;2023-06-05T07:42:53;10.80;;;7.95;;
39314;SDS011;28703;44.412;11.918;2023-06-05T07:45:19;8.63;;;7.82;;
39314;SDS011;28703;44.412;11.918;2023-06-05T07:47:45;9.18;;;7.20;;
39314;SDS011;28703;44.412;11.918;2023-06-05T07:50:11;8.35;;;7.53;;
39314;SDS011;28703;44.412;11.918;2023-06-05T07:52:37;7.30;;;6.60;;
39314;SDS011;28703;44.412;11.918;2023-06-05T07:55:03;7.32;;;6.63;;
39314;SDS011;28703;44.412;11.918;2023-06-05T07:57:30;7.72;;;6.70;;
39314;SDS011;28703;44.412;11.918;2023-06-05T07:59:55;7.53;;;6.82;;
39314;SDS011;28703;44.412;11.918;2023-06-05T08:02:21;7.90;;;7.20;;
39314;SDS011;28703;44.412;11.918;2023-06-05T08:04:48;10.82;;;7.00;;
39314;SDS011;28703;44.412;11.918;2023-06-05T08:07:14;7.13;;;6.40;;
39314;SDS011;28703;44.412;11.918;2023-06-05T08:09:40;9.80;;;6.35;;
39314;SDS011;28703;44.412;11.918;2023-06-05T08:12:07;6.57;;;5.97;;
39314;SDS011;28703;44.412;11.918;2023-06-05T08:14:33;10.60;;;6.97;;
39314;SDS011;28703;44.412;11.918;2023-06-05T08:17:00;17.27;;;15.13;;
39314;SDS011;28703;44.412;11.918;2023-06-05T08:19:25;8.23;;;7.45;;
39314;SDS011;28703;44.412;11.918;2023-06-05T08:21:54;7.03;;;6.43;;
39314;SDS011;28703;44.412;11.918;2023-06-05T08:24:24;7.03;;;6.38;;
39314;SDS011;28703;44.412;11.918;2023-06-05T08:26:52;10.10;;;6.30;;
39314;SDS011;28703;44.412;11.918;2023-06-05T08:29:18;6.40;;;5.80;;
39314;SDS011;28703;44.412;11.918;2023-06-05T08:31:43;6.47;;;5.78;;
39314;SDS011;28703;44.412;11.918;2023-06-05T08:34:10;6.18;;;5.65;;
39314;SDS011;28703;44.412;11.918;2023-06-05T08:36:35;5.82;;;5.32;;
39314;SDS011;28703;44.412;11.918;2023-06-05T08:39:01;6.78;;;5.85;;
39314;SDS011;28703;44.412;11.918;2023-06-05T08:41:29;6.70;;;5.38;;
39314;SDS011;28703;44.412;11.918;2023-06-05T08:43:58;8.50;;;6.47;;
39314;SDS011;28703;44.412;11.918;2023-06-05T08:46:26;5.90;;;5.45;;
39314;SDS011;28703;44.412;11.918;2023-06-05T08:48:56;6.28;;;5.57;;
39314;SDS011;28703;44.412;11.918;2023-06-05T08:51:22;10.00;;;8.55;;
39314;SDS011;28703;44.412;11.918;2023-06-05T08:53:56;8.05;;;5.47;;
39314;SDS011;28703;44.412;11.918;2023-06-05T08:56:29;7.28;;;4.60;;
39314;SDS011;28703;44.412;11.918;2023-06-05T08:58:56;7.30;;;6.70;;
39314;SDS011;28703;44.412;11.918;2023-06-05T09:01:23;4.97;;;4.47;;
39314;SDS011;28703;44.412;11.918;2023-06-05T09:03:49;4.40;;;4.00;;
39314;SDS011;28703;44.412;11.918;2023-06-05T09:06:15;4.60;;;4.20;;
39314;SDS011;28703;44.412;11.918;2023-06-05T09:08:41;4.68;;;4.28;;
39314;SDS011;28703;44.412;11.918;2023-06-05T09:11:23;3.97;;;3.70;;
39314;SDS011;28703;44.412;11.918;2023-06-05T09:13:50;4.20;;;3.90;;
39314;SDS011;28703;44.412;11.918;2023-06-05T09:16:21;4.55;;;4.13;;
39314;SDS011;28703;44.412;11.918;2023-06-05T09:18:51;5.70;;;4.20;;
39314;SDS011;28703;44.412;11.918;2023-06-05T09:21:18;3.97;;;3.60;;
39314;SDS011;28703;44.412;11.918;2023-06-05T09:23:45;3.90;;;3.60;;
39314;SDS011;28703;44.412;11.918;2023-06-05T09:26:13;3.38;;;3.13;;
39314;SDS011;28703;44.412;11.918;2023-06-05T09:28:52;3.67;;;3.38;;
39314;SDS011;28703;44.412;11.918;2023-06-05T09:31:20;3.67;;;3.38;;
39314;SDS011;28703;44.412;11.918;2023-06-05T09:33:56;3.15;;;2.83;;
39314;SDS011;28703;44.412;11.918;2023-06-05T09:36:23;3.40;;;3.15;;
39314;SDS011;28703;44.412;11.918;2023-06-05T09:38:51;3.95;;;3.22;;
39314;SDS011;28703;44.412;11.918;2023-06-05T09:41:17;4.55;;;3.75;;
39314;SDS011;28703;44.412;11.918;2023-06-05T09:43:46;16.65;;;11.07;;
39314;SDS011;28703;44.412;11.918;2023-06-05T09:46:15;6.07;;;4.07;;
39314;SDS011;28703;44.412;11.918;2023-06-05T09:48:50;4.53;;;3.97;;
39314;SDS011;28703;44.412;11.918;2023-06-05T09:51:22;7.85;;;4.47;;
39314;SDS011;28703;44.412;11.918;2023-06-05T09:53:49;3.97;;;3.72;;
39314;SDS011;28703;44.412;11.918;2023-06-05T09:56:17;5.82;;;3.95;;
39314;SDS011;28703;44.412;11.918;2023-06-05T09:58:45;8.90;;;7.57;;
39314;SDS011;28703;44.412;11.918;2023-06-05T10:01:16;4.35;;;3.88;;
39314;SDS011;28703;44.412;11.918;2023-06-05T10:03:44;5.15;;;4.75;;
39314;SDS011;28703;44.412;11.918;2023-06-05T10:06:14;4.97;;;2.70;;
39314;SDS011;28703;44.412;11.918;2023-06-05T10:08:47;4.30;;;3.60;;
39314;SDS011;28703;44.412;11.918;2023-06-05T10:11:14;4.18;;;2.60;;
39314;SDS011;28703;44.412;11.918;2023-06-05T10:13:42;3.47;;;3.28;;
39314;SDS011;28703;44.412;11.918;2023-06-05T10:16:09;3.17;;;2.88;;
39314;SDS011;28703;44.412;11.918;2023-06-05T10:18:36;4.65;;;3.75;;
39314;SDS011;28703;44.412;11.918;2023-06-05T10:21:02;4.88;;;3.92;;
39314;SDS011;28703;44.412;11.918;2023-06-05T10:23:29;3.80;;;3.50;;
39314;SDS011;28703;44.412;11.918;2023-06-05T10:25:55;4.35;;;4.05;;
39314;SDS011;28703;44.412;11.918;2023-06-05T10:28:34;3.72;;;3.40;;
39314;SDS011;28703;44.412;11.918;2023-06-05T10:31:28;3.55;;;3.20;;
39314;SDS011;28703;44.412;11.918;2023-06-05T10:39:18;4.20;;;3.80;;
39314;SDS011;28703;44.412;11.918;2023-06-05T10:41:44;5.35;;;3.28;;
39314;SDS011;28703;44.412;11.918;2023-06-05T10:44:10;3.97;;;2.80;;
39314;SDS011;28703;44.412;11.918;2023-06-05T10:46:39;4.25;;;3.63;;
39314;SDS011;28703;44.412;11.918;2023-06-05T10:51:42;3.58;;;3.38;;
39314;SDS011;28703;44.412;11.918;2023-06-05T10:54:13;6.07;;;4.13;;
39314;SDS011;28703;44.412;11.918;2023-06-05T10:59:25;4.28;;;3.67;;
39314;SDS011;28703;44.412;11.918;2023-06-05T11:07:17;3.92;;;3.63;;
39314;SDS011;28703;44.412;11.918;2023-06-05T11:15:09;8.15;;;7.05;;
39314;SDS011;28703;44.412;11.918;2023-06-05T11:17:37;9.33;;;5.63;;
39314;SDS011;28703;44.412;11.918;2023-06-05T11:28:02;10.35;;;7.05;;
39314;SDS011;28703;44.412;11.918;2023-06-05T11:30:44;7.30;;;5.38;;
39314;SDS011;28703;44.412;11.918;2023-06-05T11:33:14;4.68;;;4.28;;
39314;SDS011;28703;44.412;11.918;2023-06-05T11:35:47;5.93;;;5.43;;
39314;SDS011;28703;44.412;11.918;2023-06-05T11:38:17;8.68;;;7.72;;
39314;SDS011;28703;44.412;11.918;2023-06-05T11:40:45;4.40;;;4.00;;
39314;SDS011;28703;44.412;11.918;2023-06-05T11:43:11;5.18;;;4.03;;
39314;SDS011;28703;44.412;11.918;2023-06-05T11:45:39;4.40;;;4.10;;
39314;SDS011;28703;44.412;11.918;2023-06-05T11:48:06;4.10;;;3.42;;
39314;SDS011;28703;44.412;11.918;2023-06-05T11:50:36;5.05;;;3.78;;
39314;SDS011;28703;44.412;11.918;2023-06-05T11:53:10;5.25;;;4.75;;
39314;SDS011;28703;44.412;11.918;2023-06-05T11:55:39;4.93;;;3.67;;
39314;SDS011;28703;44.412;11.918;2023-06-05T11:58:20;3.50;;;3.30;;
39314;SDS011;28703;44.412;11.918;2023-06-05T12:00:47;7.90;;;5.17;;
39314;SDS011;28703;44.412;11.918;2023-06-05T12:03:20;4.30;;;3.58;;
39314;SDS011;28703;44.412;11.918;2023-06-05T12:05:47;2.85;;;2.65;;
39314;SDS011;28703;44.412;11.918;2023-06-05T12:08:27;7.32;;;3.63;;
39314;SDS011;28703;44.412;11.918;2023-06-05T12:10:59;5.20;;;4.68;;
39314;SDS011;28703;44.412;11.918;2023-06-05T12:16:13;6.60;;;3.90;;
39314;SDS011;28703;44.412;11.918;2023-06-05T12:18:39;26.42;;;23.67;;
39314;SDS011;28703;44.412;11.918;2023-06-05T12:21:05;10.60;;;7.00;;
39314;SDS011;28703;44.412;11.918;2023-06-05T12:23:31;7.95;;;5.53;;
39314;SDS011;28703;44.412;11.918;2023-06-05T12:25:58;8.75;;;8.00;;
39314;SDS011;28703;44.412;11.918;2023-06-05T12:28:28;6.55;;;5.90;;
39314;SDS011;28703;44.412;11.918;2023-06-05T12:30:56;3.20;;;2.75;;
39314;SDS011;28703;44.412;11.918;2023-06-05T12:33:23;5.22;;;3.55;;
39314;SDS011;28703;44.412;11.918;2023-06-05T12:36:02;2.30;;;2.10;;
39314;SDS011;28703;44.412;11.918;2023-06-05T12:38:38;3.65;;;3.35;;
39314;SDS011;28703;44.412;11.918;2023-06-05T12:41:05;3.13;;;2.92;;
39314;SDS011;28703;44.412;11.918;2023-06-05T12:43:33;3.25;;;3.05;;
39314;SDS011;28703;44.412;11.918;2023-06-05T12:45:59;2.90;;;2.63;;
39314;SDS011;28703;44.412;11.918;2023-06-05T12:48:25;2.13;;;1.90;;
39314;SDS011;28703;44.412;11.918;2023-06-05T12:50:51;2.95;;;2.35;;
39314;SDS011;28703;44.412;11.918;2023-06-05T12:53:18;6.15;;;2.65;;
39314;SDS011;28703;44.412;11.918;2023-06-05T12:55:44;4.68;;;2.10;;
39314;SDS011;28703;44.412;11.918;2023-06-05T12:58:10;2.88;;;2.55;;
39314;SDS011;28703;44.412;11.918;2023-06-05T13:00:36;2.53;;;2.33;;
39314;SDS011;28703;44.412;11.918;2023-06-05T13:03:03;2.30;;;2.20;;
39314;SDS011;28703;44.412;11.918;2023-06-05T13:05:29;3.28;;;2.08;;
39314;SDS011;28703;44.412;11.918;2023-06-05T13:07:58;2.17;;;1.98;;
39314;SDS011;28703;44.412;11.918;2023-06-05T13:10:24;2.65;;;2.45;;
39314;SDS011;28703;44.412;11.918;2023-06-05T13:12:50;2.63;;;2.42;;
39314;SDS011;28703;44.412;11.918;2023-06-05T13:15:17;2.88;;;2.65;;
39314;SDS011;28703;44.412;11.918;2023-06-05T13:17:43;6.30;;;2.67;;
39314;SDS011;28703;44.412;11.918;2023-06-05T13:20:11;2.30;;;2.20;;
39314;SDS011;28703;44.412;11.918;2023-06-05T13:22:38;2.03;;;1.92;;
39314;SDS011;28703;44.412;11.918;2023-06-05T13:25:08;3.10;;;2.17;;
39314;SDS011;28703;44.412;11.918;2023-06-05T13:27:35;2.03;;;1.92;;
39314;SDS011;28703;44.412;11.918;2023-06-05T13:30:01;10.10;;;2.80;;
39314;SDS011;28703;44.412;11.918;2023-06-05T13:32:29;3.80;;;3.50;;
39314;SDS011;28703;44.412;11.918;2023-06-05T13:34:56;3.55;;;3.17;;
39314;SDS011;28703;44.412;11.918;2023-06-05T13:37:22;17.30;;;4.35;;
39314;SDS011;28703;44.412;11.918;2023-06-05T13:39:48;5.90;;;3.90;;
39314;SDS011;28703;44.412;11.918;2023-06-05T13:42:14;4.80;;;4.40;;
39314;SDS011;28703;44.412;11.918;2023-06-05T13:44:40;5.22;;;4.72;;
39314;SDS011;28703;44.412;11.918;2023-06-05T13:47:06;5.63;;;4.75;;
39314;SDS011;28703;44.412;11.918;2023-06-05T13:49:34;7.40;;;5.32;;
39314;SDS011;28703;44.412;11.918;2023-06-05T13:52:00;4.57;;;4.20;;
39314;SDS011;28703;44.412;11.918;2023-06-05T13:54:26;7.25;;;4.95;;
39314;SDS011;28703;44.412;11.918;2023-06-05T13:56:52;4.50;;;4.10;;
39314;SDS011;28703;44.412;11.918;2023-06-05T13:59:18;4.60;;;4.18;;
39314;SDS011;28703;44.412;11.918;2023-06-05T14:01:44;6.57;;;4.40;;
39314;SDS011;28703;44.412;11.918;2023-06-05T14:04:10;4.88;;;4.50;;
39314;SDS011;28703;44.412;11.918;2023-06-05T14:06:36;5.13;;;4.72;;
39314;SDS011;28703;44.412;11.918;2023-06-05T14:09:04;6.07;;;4.85;;
39314;SDS011;28703;44.412;11.918;2023-06-05T14:11:31;4.90;;;4.22;;
39314;SDS011;28703;44.412;11.918;2023-06-05T14:13:57;8.63;;;5.18;;
39314;SDS011;28703;44.412;11.918;2023-06-05T14:16:23;5.05;;;4.53;;
39314;SDS011;28703;44.412;11.918;2023-06-05T14:18:50;5.25;;;4.68;;
39314;SDS011;28703;44.412;11.918;2023-06-05T14:21:16;4.88;;;3.85;;
39314;SDS011;28703;44.412;11.918;2023-06-05T14:23:42;5.00;;;4.60;;
39314;SDS011;28703;44.412;11.918;2023-06-05T14:26:08;4.35;;;3.95;;
39314;SDS011;28703;44.412;11.918;2023-06-05T14:28:35;4.45;;;4.15;;
39314;SDS011;28703;44.412;11.918;2023-06-05T14:31:01;6.18;;;2.92;;
39314;SDS011;28703;44.412;11.918;2023-06-05T14:33:27;5.57;;;3.90;;
39314;SDS011;28703;44.412;11.918;2023-06-05T14:35:53;3.78;;;3.58;;
39314;SDS011;28703;44.412;11.918;2023-06-05T14:38:20;4.78;;;3.95;;
39314;SDS011;28703;44.412;11.918;2023-06-05T14:40:46;3.35;;;3.15;;
39314;SDS011;28703;44.412;11.918;2023-06-05T14:43:15;3.67;;;3.38;;
39314;SDS011;28703;44.412;11.918;2023-06-05T14:45:42;3.45;;;3.15;;
39314;SDS011;28703;44.412;11.918;2023-06-05T14:48:08;2.83;;;2.63;;
39314;SDS011;28703;44.412;11.918;2023-06-05T14:50:37;5.03;;;2.53;;
39314;SDS011;28703;44.412;11.918;2023-06-05T14:53:03;2.60;;;2.50;;
39314;SDS011;28703;44.412;11.918;2023-06-05T14:55:29;2.78;;;2.58;;
39314;SDS011;28703;44.412;11.918;2023-06-05T14:57:54;2.40;;;2.30;;
39314;SDS011;28703;44.412;11.918;2023-06-05T15:00:20;3.85;;;2.50;;
39314;SDS011;28703;44.412;11.918;2023-06-05T15:02:46;2.20;;;2.10;;
39314;SDS011;28703;44.412;11.918;2023-06-05T15:05:12;2.90;;;2.70;;
39314;SDS011;28703;44.412;11.918;2023-06-05T15:07:40;2.42;;;2.28;;
39314;SDS011;28703;44.412;11.918;2023-06-05T15:10:07;4.43;;;2.42;;
39314;SDS011;28703;44.412;11.918;2023-06-05T15:12:36;3.10;;;2.63;;
39314;SDS011;28703;44.412;11.918;2023-06-05T15:15:02;2.25;;;2.15;;
39314;SDS011;28703;44.412;11.918;2023-06-05T15:17:28;2.85;;;2.65;;